Time;durP1;ratioP1;P1;durP2;ratioP2;P2;SDS_P1;SDS_P2;PMS_P1;PMS_P2;Temp;Humidity;BMP_temperature;BMP_pressure;BME280_temperature;BME280_humidity;BME280_pressure;Samples;Min_cycle;Max_cycle;Signal;HPM_P1;HPM_P2
2021/03/30 00:00:20;;;;;;;11.30;5.28;;;10.70;89.30;;;;;;5069946;28;20029;-75
2021/03/30 00:02:46;;;;;;;10.70;4.88;;;10.70;90.20;;;;;;5070832;28;20021;-73
2021/03/30 00:05:12;;;;;;;8.02;4.75;;;10.60;90.50;;;;;;5069050;28;20025;-75
2021/03/30 00:07:37;;;;;;;9.43;4.85;;;10.50;91.10;;;;;;5062087;28;20089;-71
2021/03/30 00:10:05;;;;;;;13.98;5.47;;;10.40;91.60;;;;;;5060428;28;20325;-73
2021/03/30 00:12:31;;;;;;;9.90;4.93;;;10.20;92.30;;;;;;5070335;28;20025;-73
2021/03/30 00:14:56;;;;;;;11.45;6.00;;;10.10;92.60;;;;;;5062625;28;20683;-75
2021/03/30 00:17:22;;;;;;;8.00;5.30;;;10.00;93.20;;;;;;5070031;28;20082;-72
2021/03/30 00:19:47;;;;;;;11.48;5.32;;;9.90;94.10;;;;;;5069302;28;20032;-73
2021/03/30 00:22:13;;;;;;;11.45;5.30;;;9.80;94.10;;;;;;5069268;28;20126;-75
2021/03/30 00:24:38;;;;;;;10.98;5.53;;;9.90;94.50;;;;;;5069195;28;20047;-73
2021/03/30 00:27:05;;;;;;;8.88;5.10;;;10.00;94.70;;;;;;5068830;28;20521;-75
2021/03/30 00:29:42;;;;;;;16.80;5.85;;;10.00;95.00;;;;;;5071096;28;20032;-74
2021/03/30 00:32:10;;;;;;;19.30;5.05;;;9.90;94.80;;;;;;5069624;28;20250;-72
2021/03/30 00:34:36;;;;;;;10.93;4.95;;;9.80;95.00;;;;;;5060325;28;20100;-71
2021/03/30 00:37:02;;;;;;;16.92;5.43;;;9.80;95.50;;;;;;5070640;28;20123;-73
2021/03/30 00:39:28;;;;;;;15.82;5.78;;;9.70;96.00;;;;;;5069762;28;20036;-73
2021/03/30 00:41:54;;;;;;;14.15;6.13;;;9.60;96.50;;;;;;5061158;28;20021;-74
2021/03/30 00:44:19;;;;;;;11.25;5.75;;;9.60;96.80;;;;;;5064282;28;20020;-72
2021/03/30 00:46:46;;;;;;;13.32;5.78;;;9.60;97.10;;;;;;5071116;28;20031;-74
2021/03/30 00:49:15;;;;;;;9.88;5.57;;;9.60;97.00;;;;;;5055403;28;20368;-72
2021/03/30 00:51:43;;;;;;;12.00;5.82;;;9.60;97.20;;;;;;5070241;28;20079;-72
2021/03/30 00:54:09;;;;;;;14.02;5.75;;;9.50;97.60;;;;;;5062311;28;20048;-72
2021/03/30 00:56:36;;;;;;;11.25;6.00;;;9.50;97.70;;;;;;5058899;28;20343;-77
2021/03/30 00:59:02;;;;;;;14.20;6.05;;;9.60;97.60;;;;;;5067926;28;20025;-72
2021/03/30 01:01:27;;;;;;;14.85;6.07;;;9.60;97.60;;;;;;5058905;28;20023;-73
2021/03/30 01:03:53;;;;;;;15.48;6.07;;;9.60;97.90;;;;;;5070756;28;20480;-72
2021/03/30 01:06:19;;;;;;;13.23;5.75;;;9.40;98.90;;;;;;5069307;28;20055;-74
2021/03/30 01:09:11;;;;;;;15.30;6.30;;;9.30;99.40;;;;;;5059171;28;20013;-73
2021/03/30 01:11:59;;;;;;;13.27;6.20;;;9.20;99.90;;;;;;5052037;28;20036;-73
2021/03/30 01:14:50;;;;;;;16.55;7.22;;;9.10;99.90;;;;;;5065721;28;20017;-72
2021/03/30 01:17:54;;;;;;;13.20;6.70;;;9.10;99.90;;;;;;5060113;28;20036;-72
2021/03/30 01:20:51;;;;;;;16.08;7.15;;;9.10;99.90;;;;;;5065540;28;20051;-72
2021/03/30 01:23:45;;;;;;;14.20;6.90;;;9.10;99.90;;;;;;5069123;28;20024;-73
2021/03/30 01:26:29;;;;;;;14.73;6.88;;;9.20;99.90;;;;;;5070239;28;20361;-73
2021/03/30 01:29:02;;;;;;;11.88;6.82;;;9.10;99.90;;;;;;5067453;28;21736;-73
2021/03/30 01:31:32;;;;;;;12.30;7.10;;;9.10;99.90;;;;;;5068583;28;20028;-75
2021/03/30 01:34:00;;;;;;;15.05;7.28;;;9.00;99.90;;;;;;5066854;28;20150;-72
2021/03/30 01:36:29;;;;;;;14.68;6.90;;;9.00;99.90;;;;;;5070663;28;20036;-73
2021/03/30 01:38:56;;;;;;;12.32;6.60;;;9.00;99.90;;;;;;5074297;28;20039;-73
2021/03/30 01:41:23;;;;;;;14.13;7.03;;;8.90;99.90;;;;;;5076768;28;20416;-72
2021/03/30 01:43:49;;;;;;;11.85;7.35;;;8.80;99.90;;;;;;5072313;28;20103;-72
2021/03/30 01:46:16;;;;;;;12.93;6.80;;;8.80;99.90;;;;;;5069458;28;20515;-74
2021/03/30 01:48:43;;;;;;;14.07;7.07;;;8.80;99.90;;;;;;5067960;28;20047;-75
2021/03/30 01:51:14;;;;;;;12.18;7.32;;;8.70;99.90;;;;;;5082832;28;20033;-74
2021/03/30 01:53:43;;;;;;;14.95;7.05;;;8.70;99.90;;;;;;5081541;28;20448;-72
2021/03/30 01:56:11;;;;;;;15.57;7.45;;;8.60;99.90;;;;;;5062837;28;20025;-71
2021/03/30 01:58:38;;;;;;;13.85;7.68;;;8.60;99.90;;;;;;5069758;28;20023;-71
2021/03/30 02:01:05;;;;;;;19.67;7.30;;;8.60;99.90;;;;;;5055562;28;20401;-71
2021/03/30 02:03:31;;;;;;;14.00;7.30;;;8.60;99.90;;;;;;5070110;28;20027;-73
2021/03/30 02:05:58;;;;;;;18.10;8.02;;;8.60;99.90;;;;;;5070429;28;20028;-73
2021/03/30 02:08:28;;;;;;;16.98;7.40;;;8.60;99.90;;;;;;5067255;28;20108;-73
2021/03/30 02:10:56;;;;;;;19.92;7.85;;;8.70;99.90;;;;;;5059614;28;20092;-74
2021/03/30 02:16:19;;;;;;;16.25;7.30;;;8.50;99.90;;;;;;5067544;28;20070;-77
2021/03/30 02:19:05;;;;;;;15.70;7.78;;;8.40;99.90;;;;;;5055526;28;20029;-72
2021/03/30 02:21:41;;;;;;;17.73;7.40;;;8.40;99.90;;;;;;5070964;28;20020;-71
2021/03/30 02:24:11;;;;;;;13.98;7.50;;;8.40;99.90;;;;;;5070700;28;20079;-72
2021/03/30 02:26:40;;;;;;;14.45;7.95;;;8.40;99.90;;;;;;5070005;28;20053;-71
2021/03/30 02:29:12;;;;;;;18.55;8.38;;;8.30;99.90;;;;;;5065849;28;20012;-72
2021/03/30 02:31:41;;;;;;;21.92;8.38;;;8.30;99.90;;;;;;5069059;28;20024;-74
2021/03/30 02:34:07;;;;;;;18.42;8.35;;;8.30;99.90;;;;;;5069418;28;20025;-74
2021/03/30 02:36:34;;;;;;;18.23;8.88;;;8.30;99.90;;;;;;5068513;28;20492;-73
2021/03/30 02:39:04;;;;;;;17.58;7.80;;;8.30;99.90;;;;;;5069529;28;20084;-73
2021/03/30 02:41:30;;;;;;;18.95;8.45;;;8.20;99.90;;;;;;5069525;28;20035;-74
2021/03/30 02:43:58;;;;;;;13.05;8.63;;;8.20;99.90;;;;;;5053269;28;20124;-74
2021/03/30 02:46:25;;;;;;;17.08;8.90;;;8.10;99.90;;;;;;5060263;28;20033;-72
2021/03/30 02:48:52;;;;;;;29.75;9.98;;;8.00;99.90;;;;;;5067782;28;20013;-72
2021/03/30 02:51:20;;;;;;;21.63;8.35;;;8.00;99.90;;;;;;5069800;28;20021;-71
2021/03/30 02:53:47;;;;;;;16.90;8.30;;;7.90;99.90;;;;;;5067951;28;20036;-71
2021/03/30 02:56:13;;;;;;;20.40;9.93;;;7.90;99.90;;;;;;5060033;28;20029;-73
2021/03/30 02:58:38;;;;;;;13.68;8.57;;;7.90;99.90;;;;;;5068947;28;20392;-72
2021/03/30 03:01:06;;;;;;;16.15;9.02;;;7.90;99.90;;;;;;5068298;28;20028;-73
2021/03/30 03:03:34;;;;;;;21.70;10.25;;;7.80;99.90;;;;;;5068103;28;20591;-74
2021/03/30 03:06:01;;;;;;;18.50;9.80;;;7.70;99.90;;;;;;5068922;28;20024;-72
2021/03/30 03:08:28;;;;;;;20.52;11.23;;;7.70;99.90;;;;;;5070849;28;20107;-73
2021/03/30 03:10:54;;;;;;;16.95;11.10;;;7.80;99.90;;;;;;5066672;28;20555;-73
2021/03/30 03:13:20;;;;;;;20.65;10.43;;;7.80;99.90;;;;;;5069198;28;20036;-74
2021/03/30 03:15:46;;;;;;;17.85;11.48;;;7.80;99.90;;;;;;5068405;28;20501;-74
2021/03/30 03:18:14;;;;;;;17.73;10.82;;;7.60;99.90;;;;;;5067944;28;20216;-73
2021/03/30 03:20:40;;;;;;;21.33;10.65;;;7.60;99.90;;;;;;5068319;28;20070;-71
2021/03/30 03:23:07;;;;;;;18.67;10.80;;;7.50;99.90;;;;;;5068137;28;20040;-72
2021/03/30 03:25:34;;;;;;;23.58;11.30;;;7.40;99.90;;;;;;5071978;28;20028;-72
2021/03/30 03:28:01;;;;;;;22.98;12.20;;;7.40;99.90;;;;;;5073136;28;20016;-72
2021/03/30 03:30:28;;;;;;;25.02;12.45;;;7.30;99.90;;;;;;5071977;28;20028;-75
2021/03/30 03:33:03;;;;;;;23.00;12.20;;;7.20;99.90;;;;;;5073187;28;20016;-73
2021/03/30 03:35:28;;;;;;;23.27;11.85;;;7.20;99.90;;;;;;5057990;28;20079;-73
2021/03/30 03:37:54;;;;;;;24.20;12.50;;;7.20;99.90;;;;;;5076478;28;20350;-74
2021/03/30 03:40:19;;;;;;;19.23;11.48;;;7.10;99.90;;;;;;5065716;28;20256;-74
2021/03/30 03:42:45;;;;;;;22.88;12.57;;;7.10;99.90;;;;;;5079344;28;20017;-71
2021/03/30 03:45:11;;;;;;;30.52;12.40;;;7.10;99.90;;;;;;5075497;28;20051;-73
2021/03/30 03:47:37;;;;;;;18.65;12.85;;;7.10;99.90;;;;;;5080480;28;20025;-74
2021/03/30 03:50:04;;;;;;;21.60;12.93;;;7.10;99.90;;;;;;5083036;28;20040;-73
2021/03/30 03:52:36;;;;;;;21.52;11.73;;;7.00;99.90;;;;;;5066421;28;20024;-76
2021/03/30 03:55:03;;;;;;;19.48;12.07;;;7.10;99.90;;;;;;5074912;28;20108;-74
2021/03/30 03:57:41;;;;;;;22.08;12.20;;;7.10;99.90;;;;;;5076695;28;20032;-73
2021/03/30 04:00:07;;;;;;;21.00;11.98;;;7.10;99.90;;;;;;5078737;28;20108;-72
2021/03/30 04:02:40;;;;;;;22.08;12.60;;;7.10;99.90;;;;;;5075884;28;20031;-74
2021/03/30 04:05:19;;;;;;;24.58;13.32;;;7.10;99.90;;;;;;5067130;28;20036;-74
2021/03/30 04:07:59;;;;;;;27.38;13.38;;;7.00;99.90;;;;;;5071880;28;20028;-75
2021/03/30 04:10:26;;;;;;;36.15;14.68;;;6.90;99.90;;;;;;5073662;28;20035;-74
2021/03/30 04:12:53;;;;;;;27.50;13.95;;;6.80;99.90;;;;;;5080002;28;20031;-77
2021/03/30 04:15:24;;;;;;;25.10;14.35;;;6.80;99.90;;;;;;5081613;28;20555;-75
2021/03/30 04:17:50;;;;;;;23.35;13.13;;;6.80;99.90;;;;;;5080441;28;20095;-73
2021/03/30 04:20:18;;;;;;;28.05;14.27;;;6.70;99.90;;;;;;5072327;28;20056;-72
2021/03/30 04:22:55;;;;;;;23.85;14.52;;;6.70;99.90;;;;;;5076862;28;20312;-74
2021/03/30 04:25:22;;;;;;;27.73;14.60;;;6.70;99.90;;;;;;5076691;28;20024;-73
2021/03/30 04:27:47;;;;;;;30.42;15.25;;;6.70;99.90;;;;;;5077579;28;20758;-73
2021/03/30 04:30:14;;;;;;;29.60;14.40;;;6.70;99.90;;;;;;5071842;28;20073;-72
2021/03/30 04:32:39;;;;;;;30.23;15.95;;;6.70;99.90;;;;;;5073554;28;20029;-71
2021/03/30 04:35:06;;;;;;;29.15;15.20;;;6.70;99.90;;;;;;5072712;28;20032;-74
2021/03/30 04:37:31;;;;;;;27.95;14.73;;;6.60;99.90;;;;;;5075400;28;20028;-75
2021/03/30 04:39:57;;;;;;;30.13;14.77;;;6.60;99.90;;;;;;5073440;28;20086;-72
2021/03/30 04:42:23;;;;;;;29.77;15.52;;;6.60;99.90;;;;;;5072595;28;20120;-72
2021/03/30 04:44:49;;;;;;;33.97;16.05;;;6.60;99.90;;;;;;5074836;28;20024;-74
2021/03/30 04:47:15;;;;;;;30.58;15.75;;;6.60;99.90;;;;;;5074005;28;20024;-74
2021/03/30 04:49:41;;;;;;;31.60;15.27;;;6.60;99.90;;;;;;5073701;28;20467;-73
2021/03/30 04:52:07;;;;;;;27.80;16.25;;;6.60;99.90;;;;;;5077055;28;20032;-75
2021/03/30 04:54:34;;;;;;;29.17;15.88;;;6.50;99.90;;;;;;5075872;28;20300;-73
2021/03/30 04:57:00;;;;;;;26.25;14.60;;;6.50;99.90;;;;;;5077167;28;20560;-72
2021/03/30 04:59:25;;;;;;;24.55;14.50;;;6.60;99.90;;;;;;5071094;28;20025;-71
2021/03/30 05:01:51;;;;;;;30.88;15.20;;;6.60;99.90;;;;;;5071329;28;20109;-73
2021/03/30 05:04:17;;;;;;;28.77;15.32;;;6.60;99.90;;;;;;5070549;28;20037;-76
2021/03/30 05:06:44;;;;;;;25.75;14.57;;;6.60;99.90;;;;;;5075253;28;20024;-72
2021/03/30 05:09:10;;;;;;;28.70;14.98;;;6.60;99.90;;;;;;5068356;28;20029;-75
2021/03/30 05:11:35;;;;;;;33.50;16.73;;;6.50;99.90;;;;;;5074068;28;20051;-76
2021/03/30 05:14:02;;;;;;;33.95;16.70;;;6.40;99.90;;;;;;5072161;28;20024;-73
2021/03/30 05:16:29;;;;;;;36.50;17.20;;;6.50;99.90;;;;;;5073031;28;20036;-75
2021/03/30 05:18:56;;;;;;;31.52;17.92;;;6.40;99.90;;;;;;5076575;28;20017;-74
2021/03/30 05:21:27;;;;;;;28.15;15.60;;;6.40;99.90;;;;;;5075958;28;20036;-72
2021/03/30 05:23:53;;;;;;;29.02;17.77;;;6.40;99.90;;;;;;5077329;28;20050;-72
2021/03/30 05:26:18;;;;;;;39.55;16.13;;;6.40;99.90;;;;;;5073823;28;20107;-74
2021/03/30 05:28:45;;;;;;;35.38;17.00;;;6.40;99.90;;;;;;5070548;28;20028;-72
2021/03/30 05:31:11;;;;;;;30.38;17.70;;;6.40;99.90;;;;;;5072025;28;20036;-72
2021/03/30 05:33:37;;;;;;;36.17;16.73;;;6.40;99.90;;;;;;5062299;28;20031;-72
2021/03/30 05:36:16;;;;;;;26.80;15.43;;;6.40;99.90;;;;;;5080447;28;20080;-73
2021/03/30 05:38:47;;;;;;;31.38;16.98;;;6.40;99.90;;;;;;5067815;28;20067;-72
2021/03/30 05:41:13;;;;;;;32.47;16.58;;;6.50;99.90;;;;;;5087736;28;20088;-71
2021/03/30 05:43:41;;;;;;;32.20;17.30;;;6.50;99.90;;;;;;5084152;28;20029;-73
2021/03/30 05:46:09;;;;;;;31.27;16.67;;;6.40;99.90;;;;;;5086971;28;20100;-71
2021/03/30 05:48:36;;;;;;;27.95;15.90;;;6.40;99.90;;;;;;5087819;28;20025;-71
2021/03/30 05:51:14;;;;;;;34.25;17.25;;;6.40;99.90;;;;;;5089612;28;20038;-71
2021/03/30 05:53:57;;;;;;;26.27;16.02;;;6.40;99.90;;;;;;5088758;28;20515;-72
2021/03/30 05:56:27;;;;;;;33.55;17.33;;;6.50;99.90;;;;;;5070249;28;20040;-73
2021/03/30 05:59:05;;;;;;;32.72;18.52;;;6.50;99.90;;;;;;5081626;28;20020;-72
2021/03/30 06:01:32;;;;;;;31.50;16.77;;;6.60;99.90;;;;;;5077484;28;20040;-73
2021/03/30 06:04:01;;;;;;;33.20;18.10;;;6.60;99.90;;;;;;5084842;28;20031;-74
2021/03/30 06:06:29;;;;;;;35.80;19.40;;;6.60;99.90;;;;;;5086119;28;20012;-75
2021/03/30 06:08:55;;;;;;;34.08;19.98;;;6.70;99.90;;;;;;5090955;28;20100;-76
2021/03/30 06:11:20;;;;;;;37.97;18.65;;;6.80;99.90;;;;;;5090336;28;20644;-74
2021/03/30 06:13:56;;;;;;;35.78;19.05;;;6.80;99.90;;;;;;5077398;28;20017;-73
2021/03/30 06:16:41;;;;;;;40.53;19.95;;;6.90;99.90;;;;;;5074982;28;20031;-75
2021/03/30 06:19:16;;;;;;;35.22;18.88;;;6.90;99.90;;;;;;5076751;28;20059;-73
2021/03/30 06:22:00;;;;;;;39.00;18.20;;;6.90;99.90;;;;;;5069649;28;20024;-74
2021/03/30 06:24:28;;;;;;;42.60;20.42;;;7.00;99.90;;;;;;5078942;28;20046;-74
2021/03/30 06:27:15;;;;;;;42.65;18.60;;;7.10;99.90;;;;;;5074990;28;20032;-72
2021/03/30 06:29:41;;;;;;;32.95;18.33;;;7.30;99.90;;;;;;5068016;28;20104;-73
2021/03/30 06:32:09;;;;;;;33.20;17.92;;;7.40;99.90;;;;;;5070601;28;20019;-72
2021/03/30 06:34:41;;;;;;;36.63;18.98;;;7.50;99.90;;;;;;5070481;28;20020;-75
2021/03/30 06:37:32;;;;;;;40.08;19.88;;;7.60;99.90;;;;;;5070724;28;20036;-73
2021/03/30 06:40:04;;;;;;;38.42;19.98;;;7.70;99.90;;;;;;5066738;28;20158;-73
2021/03/30 06:42:41;;;;;;;44.42;21.83;;;7.90;99.90;;;;;;5070187;28;20009;-73
2021/03/30 06:45:21;;;;;;;43.22;20.85;;;8.00;99.90;;;;;;5066073;28;20028;-72
2021/03/30 06:47:55;;;;;;;42.70;22.65;;;8.10;99.90;;;;;;5072256;28;20052;-74
2021/03/30 06:50:28;;;;;;;44.63;21.48;;;8.30;99.90;;;;;;5073678;28;20096;-72
2021/03/30 06:52:56;;;;;;;52.63;23.60;;;8.30;99.90;;;;;;5074988;28;20024;-76
2021/03/30 06:55:29;;;;;;;39.00;20.52;;;8.40;99.90;;;;;;5072014;28;20612;-73
2021/03/30 06:58:04;;;;;;;45.25;22.15;;;8.50;99.90;;;;;;5072213;28;20019;-72
2021/03/30 07:00:32;;;;;;;42.40;21.00;;;8.70;99.90;;;;;;5064496;28;20029;-72
2021/03/30 07:03:09;;;;;;;46.53;22.95;;;8.80;99.90;;;;;;5053012;28;20012;-75
2021/03/30 07:05:40;;;;;;;56.67;24.27;;;8.90;99.90;;;;;;5071169;28;20029;-72
2021/03/30 07:08:10;;;;;;;48.45;23.80;;;9.10;99.90;;;;;;5065332;28;20021;-76
2021/03/30 07:10:45;;;;;;;52.45;24.60;;;9.20;99.90;;;;;;5057725;28;20147;-73
2021/03/30 07:13:11;;;;;;;52.38;25.83;;;9.30;99.90;;;;;;5069223;28;20028;-75
2021/03/30 07:15:38;;;;;;;50.28;25.52;;;9.50;99.90;;;;;;5065297;28;20078;-74
2021/03/30 07:18:46;;;;;;;58.38;25.83;;;9.60;99.90;;;;;;5067636;28;20017;-73
2021/03/30 07:21:23;;;;;;;60.53;25.10;;;9.90;99.90;;;;;;5063872;28;20499;-73
2021/03/30 07:23:53;;;;;;;52.65;24.30;;;10.10;99.90;;;;;;5068318;28;20420;-72
2021/03/30 07:26:22;;;;;;;50.28;24.58;;;10.30;99.90;;;;;;5066186;28;20668;-74
2021/03/30 07:29:08;;;;;;;59.72;24.70;;;10.40;99.90;;;;;;5069226;28;20028;-73
2021/03/30 07:32:16;;;;;;;50.70;25.52;;;10.60;99.90;;;;;;5062515;28;20331;-72
2021/03/30 07:35:09;;;;;;;66.32;24.75;;;10.70;99.90;;;;;;5052946;28;20066;-76
2021/03/30 07:37:54;;;;;;;52.38;24.95;;;10.90;99.90;;;;;;5068289;28;20032;-74
2021/03/30 07:40:21;;;;;;;62.55;26.48;;;10.90;99.90;;;;;;5068659;28;20029;-75
2021/03/30 07:42:48;;;;;;;56.95;25.55;;;11.00;99.90;;;;;;5049241;28;20036;-74
2021/03/30 07:45:17;;;;;;;49.33;24.80;;;11.10;99.90;;;;;;5063282;28;20054;-75
2021/03/30 07:47:44;;;;;;;60.17;26.25;;;11.10;99.90;;;;;;5068385;28;20387;-72
2021/03/30 07:50:11;;;;;;;57.05;26.75;;;11.30;99.90;;;;;;5065804;28;20028;-72
2021/03/30 07:52:45;;;;;;;55.47;24.80;;;11.40;99.90;;;;;;5067907;28;20039;-74
2021/03/30 07:55:22;;;;;;;57.30;25.38;;;11.50;99.90;;;;;;5060504;28;20107;-72
2021/03/30 07:58:01;;;;;;;54.13;23.83;;;11.60;99.90;;;;;;5058459;28;20021;-74
2021/03/30 08:00:39;;;;;;;52.08;25.38;;;11.80;99.90;;;;;;5063435;28;20021;-73
2021/03/30 08:03:07;;;;;;;61.03;26.50;;;12.00;99.90;;;;;;5082740;28;20052;-73
2021/03/30 08:05:38;;;;;;;57.72;24.92;;;12.10;99.90;;;;;;5080458;28;20054;-75
2021/03/30 08:08:24;;;;;;;51.70;25.60;;;12.20;99.90;;;;;;5085902;28;20036;-72
2021/03/30 08:10:52;;;;;;;58.75;27.73;;;12.40;99.90;;;;;;5076834;28;20470;-76
2021/03/30 08:13:31;;;;;;;58.20;26.05;;;12.60;99.90;;;;;;5075253;28;20106;-74
2021/03/30 08:16:00;;;;;;;52.47;24.55;;;12.80;99.90;;;;;;5073752;28;20063;-73
2021/03/30 08:18:29;;;;;;;54.45;25.00;;;13.00;99.90;;;;;;5073505;28;20028;-72
2021/03/30 08:21:15;;;;;;;62.40;26.60;;;13.10;99.90;;;;;;5058924;28;20012;-72
2021/03/30 08:23:53;;;;;;;53.88;27.42;;;13.30;99.90;;;;;;5071769;28;20035;-75
2021/03/30 08:26:30;;;;;;;58.55;26.85;;;13.50;99.90;;;;;;5068553;28;20032;-74
2021/03/30 08:29:08;;;;;;;58.63;26.73;;;13.60;99.90;;;;;;5059590;28;20092;-72
2021/03/30 08:31:45;;;;;;;65.25;27.08;;;13.70;99.90;;;;;;5077278;28;20086;-73
2021/03/30 08:34:23;;;;;;;75.70;28.90;;;13.70;99.90;;;;;;5060307;28;20102;-73
2021/03/30 08:36:51;;;;;;;57.40;26.63;;;13.80;99.90;;;;;;5073082;28;20261;-75
2021/03/30 08:39:19;;;;;;;58.58;25.80;;;14.10;99.90;;;;;;5073197;28;20036;-73
2021/03/30 08:42:05;;;;;;;55.75;25.23;;;14.20;99.90;;;;;;5072789;28;20081;-73
2021/03/30 08:44:55;;;;;;;50.25;25.98;;;14.50;99.90;;;;;;5074897;28;20031;-73
2021/03/30 08:47:39;;;;;;;60.53;26.05;;;15.00;99.90;;;;;;5071977;28;20029;-74
2021/03/30 08:50:15;;;;;;;54.65;24.80;;;15.30;99.90;;;;;;5066262;28;20361;-72
2021/03/30 08:52:42;;;;;;;58.05;26.73;;;15.70;99.90;;;;;;5071599;28;20016;-72
2021/03/30 08:55:09;;;;;;;53.92;25.55;;;16.10;99.90;;;;;;5073368;28;20032;-72
2021/03/30 08:57:39;;;;;;;50.33;24.42;;;16.70;99.80;;;;;;5073232;28;20482;-74
2021/03/30 09:00:12;;;;;;;57.15;26.90;;;17.10;98.60;;;;;;5072248;28;20012;-72
2021/03/30 09:02:38;;;;;;;50.33;24.70;;;17.30;98.10;;;;;;5056739;28;20025;-74
2021/03/30 09:05:19;;;;;;;82.32;27.40;;;17.30;96.30;;;;;;5072182;28;20521;-71
2021/03/30 09:07:48;;;;;;;58.10;23.60;;;17.30;97.00;;;;;;5072144;28;20384;-73
2021/03/30 09:10:15;;;;;;;50.58;22.55;;;17.80;94.10;;;;;;5061043;28;20031;-74
2021/03/30 09:12:42;;;;;;;44.78;22.58;;;18.60;93.20;;;;;;5068345;28;20112;-72
2021/03/30 09:15:10;;;;;;;48.88;21.60;;;18.80;91.20;;;;;;5072376;28;20091;-73
2021/03/30 09:17:51;;;;;;;50.75;23.65;;;19.10;85.90;;;;;;5069483;28;20048;-73
2021/03/30 09:20:17;;;;;;;48.67;23.48;;;18.50;88.90;;;;;;5069368;28;20017;-72
2021/03/30 09:22:46;;;;;;;53.50;23.30;;;18.60;86.70;;;;;;5052763;28;20029;-74
2021/03/30 09:27:47;;;;;;;54.47;25.48;;;19.00;84.00;;;;;;5071515;28;20111;-71
2021/03/30 09:30:15;;;;;;;55.63;25.17;;;19.00;83.30;;;;;;5053389;28;20027;-72
2021/03/30 09:32:43;;;;;;;62.47;27.80;;;19.50;84.50;;;;;;5065427;28;20107;-71
2021/03/30 09:35:11;;;;;;;60.17;25.88;;;19.90;82.70;;;;;;5067428;28;20115;-73
2021/03/30 09:37:43;;;;;;;57.58;26.42;;;20.40;80.10;;;;;;5071698;28;20024;-74
2021/03/30 09:40:14;;;;;;;60.55;27.48;;;20.40;79.50;;;;;;5056829;28;20025;-73
2021/03/30 09:42:41;;;;;;;55.25;27.05;;;20.30;78.70;;;;;;5044301;28;20025;-72
2021/03/30 09:45:13;;;;;;;58.03;28.45;;;20.10;79.90;;;;;;5054437;28;20480;-73
2021/03/30 09:47:40;;;;;;;60.42;26.38;;;19.60;77.60;;;;;;5076206;28;20025;-71
2021/03/30 09:50:08;;;;;;;60.05;27.35;;;18.90;78.00;;;;;;5071409;28;20028;-73
2021/03/30 09:52:36;;;;;;;64.30;28.02;;;18.90;76.60;;;;;;5070657;28;20016;-72
2021/03/30 09:55:03;;;;;;;64.20;28.30;;;19.40;78.60;;;;;;5050022;28;20039;-72
2021/03/30 09:57:29;;;;;;;61.10;27.38;;;20.10;75.80;;;;;;5070496;28;20137;-73
2021/03/30 09:59:56;;;;;;;133.40;38.30;;;20.30;74.10;;;;;;5049683;28;20029;-71
2021/03/30 10:02:28;;;;;;;67.38;28.48;;;20.00;75.10;;;;;;5069022;28;20414;-73
2021/03/30 10:04:55;;;;;;;57.85;27.10;;;19.90;72.70;;;;;;5071623;28;20021;-72
2021/03/30 10:07:22;;;;;;;54.65;26.33;;;19.90;75.60;;;;;;5074377;28;20028;-72
2021/03/30 10:10:15;;;;;;;61.08;27.15;;;20.10;71.70;;;;;;5067231;28;20012;-70
2021/03/30 10:13:08;;;;;;;53.15;25.48;;;20.40;70.90;;;;;;5065473;28;20563;-72
2021/03/30 10:15:40;;;;;;;66.10;27.65;;;20.70;71.30;;;;;;5068728;28;20043;-74
2021/03/30 10:18:10;;;;;;;;;;;20.90;69.80;;;;;;5058084;28;20027;-72
2021/03/30 10:20:43;;;;;;;57.75;26.00;;;20.60;69.80;;;;;;5059904;28;19905;-74
2021/03/30 10:23:34;;;;;;;62.35;27.10;;;20.60;68.70;;;;;;5065827;28;20418;-72
2021/03/30 10:26:14;;;;;;;62.53;27.67;;;20.40;68.80;;;;;;5069095;28;20043;-73
2021/03/30 10:28:41;;;;;;;55.55;25.00;;;20.60;68.40;;;;;;5069221;28;20013;-71
2021/03/30 10:33:39;;;;;;;57.05;24.50;;;20.40;65.90;;;;;;5069579;28;20021;-74
2021/03/30 10:36:13;;;;;;;48.45;24.13;;;20.50;66.60;;;;;;5069202;28;20384;-72
2021/03/30 10:38:40;;;;;;;56.45;23.65;;;20.40;64.60;;;;;;5070000;28;20171;-74
2021/03/30 10:41:11;;;;;;;48.90;21.85;;;20.20;64.70;;;;;;5069896;28;20035;-73
2021/03/30 10:43:38;;;;;;;44.90;21.48;;;20.50;63.30;;;;;;5070178;28;20078;-74
2021/03/30 10:46:22;;;;;;;43.08;21.77;;;20.80;64.00;;;;;;5056789;28;20103;-71
2021/03/30 10:49:04;;;;;;;48.00;22.88;;;21.00;63.20;;;;;;5070033;28;20040;-74
2021/03/30 10:51:33;;;;;;;44.08;20.58;;;20.90;62.50;;;;;;5073246;28;20063;-73
2021/03/30 10:54:00;;;;;;;43.38;20.65;;;20.70;63.10;;;;;;5059397;28;20438;-72
2021/03/30 10:56:32;;;;;;;57.85;23.98;;;20.50;63.40;;;;;;5074782;28;20052;-73
2021/03/30 10:58:58;;;;;;;49.05;21.95;;;20.50;63.80;;;;;;5067683;28;20485;-71
2021/03/30 11:01:24;;;;;;;52.03;21.95;;;20.50;63.80;;;;;;5059366;28;20070;-72
2021/03/30 11:03:51;;;;;;;49.28;21.80;;;20.70;64.10;;;;;;5056557;28;20021;-73
2021/03/30 11:06:17;;;;;;;43.40;20.05;;;21.00;63.00;;;;;;5073657;28;20024;-72
2021/03/30 11:08:43;;;;;;;38.30;16.52;;;21.00;63.40;;;;;;5049315;28;20479;-71
2021/03/30 11:11:10;;;;;;;44.00;17.45;;;21.10;60.30;;;;;;5073465;28;20024;-74
2021/03/30 11:13:36;;;;;;;36.58;18.58;;;21.10;61.10;;;;;;5081169;28;20074;-76
2021/03/30 11:16:02;;;;;;;40.40;18.08;;;21.30;60.90;;;;;;5082076;28;20050;-73
2021/03/30 11:18:28;;;;;;;33.10;15.82;;;21.60;61.50;;;;;;5071795;28;20722;-74
2021/03/30 11:20:53;;;;;;;30.20;15.52;;;21.70;58.90;;;;;;5069227;28;20101;-75
2021/03/30 11:23:21;;;;;;;30.05;15.18;;;21.70;57.70;;;;;;5068731;28;20117;-72
2021/03/30 11:25:47;;;;;;;35.15;17.10;;;21.80;59.10;;;;;;5069013;28;20023;-71
2021/03/30 11:28:13;;;;;;;35.40;18.25;;;22.20;58.40;;;;;;5066401;28;20340;-73
2021/03/30 11:30:56;;;;;;;35.10;16.45;;;22.20;57.70;;;;;;5070694;28;20008;-73
2021/03/30 11:33:28;;;;;;;37.90;15.77;;;22.40;58.30;;;;;;5069513;28;20031;-73
2021/03/30 11:38:20;;;;;;;29.63;14.55;;;22.80;55.40;;;;;;5061837;28;20032;-71
2021/03/30 11:40:46;;;;;;;34.35;16.23;;;23.00;54.40;;;;;;5069695;28;20074;-74
2021/03/30 11:43:12;;;;;;;36.80;15.98;;;22.90;54.70;;;;;;5068524;28;20024;-72
2021/03/30 11:45:38;;;;;;;32.55;15.35;;;22.80;54.70;;;;;;5063275;28;20032;-72
2021/03/30 11:48:05;;;;;;;33.25;16.55;;;23.20;54.80;;;;;;5049086;28;20279;-73
2021/03/30 11:50:33;;;;;;;34.25;16.35;;;23.30;54.40;;;;;;5062867;28;20035;-72
2021/03/30 11:52:59;;;;;;;38.30;17.83;;;23.80;52.60;;;;;;5067725;28;20112;-72
2021/03/30 11:55:25;;;;;;;35.45;18.60;;;23.50;52.00;;;;;;5064721;28;20049;-74
2021/03/30 11:57:51;;;;;;;33.80;17.50;;;23.20;51.50;;;;;;5067625;28;20025;-72
2021/03/30 12:00:19;;;;;;;37.25;17.60;;;23.40;53.90;;;;;;5067452;28;20722;-80
2021/03/30 12:02:46;;;;;;;39.78;17.30;;;24.00;53.20;;;;;;5068444;28;20427;-76
2021/03/30 12:05:11;;;;;;;37.10;16.15;;;23.40;52.00;;;;;;5051208;28;20017;-72
2021/03/30 12:07:37;;;;;;;34.08;16.85;;;23.30;51.40;;;;;;5049633;28;20453;-72
2021/03/30 12:10:05;;;;;;;37.60;18.02;;;23.80;51.10;;;;;;5046613;28;20040;-72
2021/03/30 12:12:31;;;;;;;41.08;17.35;;;23.60;51.70;;;;;;5058016;28;20452;-74
2021/03/30 12:14:57;;;;;;;36.67;17.00;;;23.80;51.40;;;;;;5067330;28;20047;-75
2021/03/30 12:17:22;;;;;;;36.03;16.85;;;24.10;50.20;;;;;;5066622;28;20032;-72
2021/03/30 12:19:48;;;;;;;35.42;17.13;;;23.80;49.80;;;;;;5061419;28;20100;-72
2021/03/30 12:22:13;;;;;;;32.00;15.20;;;23.60;50.10;;;;;;5059327;28;20035;-72
2021/03/30 12:24:39;;;;;;;34.83;17.13;;;23.60;49.50;;;;;;5064816;28;20062;-74
2021/03/30 12:27:09;;;;;;;33.30;16.55;;;23.90;50.00;;;;;;5068043;28;20471;-73
2021/03/30 12:29:36;;;;;;;34.90;17.30;;;23.50;49.30;;;;;;5066794;28;20116;-73
2021/03/30 12:32:02;;;;;;;33.65;16.33;;;24.00;48.50;;;;;;5048447;28;20299;-72
2021/03/30 12:34:28;;;;;;;38.63;16.60;;;24.30;48.10;;;;;;5058828;28;20017;-72
2021/03/30 12:36:54;;;;;;;37.08;17.88;;;24.50;47.70;;;;;;5061656;28;20028;-71
2021/03/30 12:39:19;;;;;;;33.83;15.68;;;24.80;47.80;;;;;;5066760;28;20075;-72
2021/03/30 12:41:45;;;;;;;33.72;16.00;;;24.80;47.30;;;;;;5053363;28;20078;-74
2021/03/30 12:44:11;;;;;;;34.20;17.15;;;25.00;45.70;;;;;;5065465;28;20031;-72
2021/03/30 12:46:37;;;;;;;32.88;16.00;;;24.50;45.70;;;;;;5070578;28;20230;-75
2021/03/30 12:49:03;;;;;;;30.52;15.40;;;24.10;47.50;;;;;;5047938;28;20090;-72
2021/03/30 12:51:29;;;;;;;37.88;16.63;;;24.40;47.60;;;;;;5057919;28;20043;-74
2021/03/30 12:53:57;;;;;;;34.05;15.18;;;24.50;46.00;;;;;;5067917;28;20028;-71
2021/03/30 12:56:23;;;;;;;30.10;15.30;;;24.80;45.20;;;;;;5070121;28;20024;-73
2021/03/30 12:58:48;;;;;;;31.67;17.00;;;25.20;46.30;;;;;;5070682;28;20619;-72
2021/03/30 13:01:14;;;;;;;32.30;15.60;;;25.20;44.90;;;;;;5068440;28;20084;-72